sensor_id;sensor_type;location;lat;lon;timestamp;P1;durP1;ratioP1;P2;durP2;ratioP2
19179;SDS011;9722;48.754;8.868;2023-01-28T00:01:28;3.10;;;2.87;;
19179;SDS011;9722;48.754;8.868;2023-01-28T00:04:49;3.50;;;3.20;;
19179;SDS011;9722;48.754;8.868;2023-01-28T00:08:10;3.50;;;3.20;;
19179;SDS011;9722;48.754;8.868;2023-01-28T00:11:32;3.33;;;3.03;;
19179;SDS011;9722;48.754;8.868;2023-01-28T00:14:53;3.47;;;3.17;;
19179;SDS011;9722;48.754;8.868;2023-01-28T00:18:13;2.83;;;2.63;;
19179;SDS011;9722;48.754;8.868;2023-01-28T00:21:34;3.43;;;3.13;;
19179;SDS011;9722;48.754;8.868;2023-01-28T00:24:54;3.43;;;3.00;;
19179;SDS011;9722;48.754;8.868;2023-01-28T00:28:15;2.87;;;2.67;;
19179;SDS011;9722;48.754;8.868;2023-01-28T00:31:35;3.70;;;3.13;;
19179;SDS011;9722;48.754;8.868;2023-01-28T00:34:56;3.43;;;3.00;;
19179;SDS011;9722;48.754;8.868;2023-01-28T00:38:17;3.63;;;3.33;;
19179;SDS011;9722;48.754;8.868;2023-01-28T00:41:37;2.97;;;2.70;;
19179;SDS011;9722;48.754;8.868;2023-01-28T00:44:58;3.00;;;2.60;;
19179;SDS011;9722;48.754;8.868;2023-01-28T00:48:18;3.20;;;2.90;;
19179;SDS011;9722;48.754;8.868;2023-01-28T00:51:39;3.47;;;3.17;;
19179;SDS011;9722;48.754;8.868;2023-01-28T00:54:59;3.33;;;3.03;;
19179;SDS011;9722;48.754;8.868;2023-01-28T00:58:20;3.90;;;3.43;;
19179;SDS011;9722;48.754;8.868;2023-01-28T01:01:43;4.50;;;4.10;;
19179;SDS011;9722;48.754;8.868;2023-01-28T01:05:03;3.87;;;3.40;;
19179;SDS011;9722;48.754;8.868;2023-01-28T01:08:24;5.03;;;4.13;;
19179;SDS011;9722;48.754;8.868;2023-01-28T01:11:53;4.23;;;3.50;;
19179;SDS011;9722;48.754;8.868;2023-01-28T01:15:14;3.87;;;3.57;;
19179;SDS011;9722;48.754;8.868;2023-01-28T01:18:36;4.20;;;3.80;;
19179;SDS011;9722;48.754;8.868;2023-01-28T01:22:00;3.67;;;3.27;;
19179;SDS011;9722;48.754;8.868;2023-01-28T01:25:21;3.40;;;3.10;;
19179;SDS011;9722;48.754;8.868;2023-01-28T01:28:41;3.93;;;3.60;;
19179;SDS011;9722;48.754;8.868;2023-01-28T01:32:02;4.27;;;3.83;;
19179;SDS011;9722;48.754;8.868;2023-01-28T01:35:22;4.00;;;3.70;;
19179;SDS011;9722;48.754;8.868;2023-01-28T01:38:43;4.00;;;3.70;;
19179;SDS011;9722;48.754;8.868;2023-01-28T01:42:04;4.30;;;3.87;;
19179;SDS011;9722;48.754;8.868;2023-01-28T01:45:25;3.90;;;3.60;;
19179;SDS011;9722;48.754;8.868;2023-01-28T01:48:48;3.30;;;3.00;;
19179;SDS011;9722;48.754;8.868;2023-01-28T01:52:13;3.40;;;3.10;;
19179;SDS011;9722;48.754;8.868;2023-01-28T01:55:36;3.40;;;3.10;;
19179;SDS011;9722;48.754;8.868;2023-01-28T01:58:59;3.90;;;3.40;;
19179;SDS011;9722;48.754;8.868;2023-01-28T02:02:20;3.37;;;3.03;;
19179;SDS011;9722;48.754;8.868;2023-01-28T02:05:41;2.60;;;2.40;;
19179;SDS011;9722;48.754;8.868;2023-01-28T02:09:01;3.43;;;2.80;;
19179;SDS011;9722;48.754;8.868;2023-01-28T02:12:23;3.10;;;2.77;;
19179;SDS011;9722;48.754;8.868;2023-01-28T02:15:50;2.53;;;2.33;;
19179;SDS011;9722;48.754;8.868;2023-01-28T02:19:11;3.00;;;2.37;;
19179;SDS011;9722;48.754;8.868;2023-01-28T02:30:12;2.63;;;2.43;;
19179;SDS011;9722;48.754;8.868;2023-01-28T02:37:22;3.13;;;2.93;;
19179;SDS011;9722;48.754;8.868;2023-01-28T02:41:00;3.30;;;3.00;;
19179;SDS011;9722;48.754;8.868;2023-01-28T02:44:30;2.77;;;2.57;;
19179;SDS011;9722;48.754;8.868;2023-01-28T02:47:50;3.00;;;2.70;;
19179;SDS011;9722;48.754;8.868;2023-01-28T03:02:01;3.17;;;2.83;;
19179;SDS011;9722;48.754;8.868;2023-01-28T03:05:32;3.17;;;2.70;;
19179;SDS011;9722;48.754;8.868;2023-01-28T03:09:22;4.00;;;2.67;;
19179;SDS011;9722;48.754;8.868;2023-01-28T03:12:45;3.00;;;2.77;;
19179;SDS011;9722;48.754;8.868;2023-01-28T03:16:29;3.20;;;2.90;;
19179;SDS011;9722;48.754;8.868;2023-01-28T03:20:11;3.50;;;3.20;;
19179;SDS011;9722;48.754;8.868;2023-01-28T03:27:42;2.77;;;2.50;;
19179;SDS011;9722;48.754;8.868;2023-01-28T03:31:27;3.93;;;3.53;;
19179;SDS011;9722;48.754;8.868;2023-01-28T03:35:07;3.87;;;3.50;;
19179;SDS011;9722;48.754;8.868;2023-01-28T03:38:49;3.97;;;3.47;;
19179;SDS011;9722;48.754;8.868;2023-01-28T03:42:11;3.80;;;3.50;;
19179;SDS011;9722;48.754;8.868;2023-01-28T03:45:33;3.20;;;3.00;;
19179;SDS011;9722;48.754;8.868;2023-01-28T03:48:53;4.10;;;3.70;;
19179;SDS011;9722;48.754;8.868;2023-01-28T03:52:15;4.90;;;4.10;;
19179;SDS011;9722;48.754;8.868;2023-01-28T03:55:37;3.43;;;3.13;;
19179;SDS011;9722;48.754;8.868;2023-01-28T03:58:57;3.63;;;3.33;;
19179;SDS011;9722;48.754;8.868;2023-01-28T04:02:19;3.53;;;3.23;;
19179;SDS011;9722;48.754;8.868;2023-01-28T04:05:57;4.00;;;3.70;;
19179;SDS011;9722;48.754;8.868;2023-01-28T04:09:22;3.80;;;3.50;;
19179;SDS011;9722;48.754;8.868;2023-01-28T04:12:43;3.90;;;3.50;;
19179;SDS011;9722;48.754;8.868;2023-01-28T04:16:04;4.03;;;3.73;;
19179;SDS011;9722;48.754;8.868;2023-01-28T04:19:24;4.30;;;4.00;;
19179;SDS011;9722;48.754;8.868;2023-01-28T04:22:46;4.80;;;4.40;;
19179;SDS011;9722;48.754;8.868;2023-01-28T04:26:06;4.80;;;4.40;;
19179;SDS011;9722;48.754;8.868;2023-01-28T04:29:27;4.57;;;4.17;;
19179;SDS011;9722;48.754;8.868;2023-01-28T04:32:48;5.03;;;4.53;;
19179;SDS011;9722;48.754;8.868;2023-01-28T04:36:09;4.27;;;3.90;;
19179;SDS011;9722;48.754;8.868;2023-01-28T04:39:30;5.13;;;4.70;;
19179;SDS011;9722;48.754;8.868;2023-01-28T04:42:54;4.57;;;4.17;;
19179;SDS011;9722;48.754;8.868;2023-01-28T04:46:15;5.43;;;4.93;;
19179;SDS011;9722;48.754;8.868;2023-01-28T04:49:35;5.13;;;4.63;;
19179;SDS011;9722;48.754;8.868;2023-01-28T04:52:56;5.93;;;4.50;;
19179;SDS011;9722;48.754;8.868;2023-01-28T04:56:16;5.27;;;4.50;;
19179;SDS011;9722;48.754;8.868;2023-01-28T04:59:37;5.73;;;5.10;;
19179;SDS011;9722;48.754;8.868;2023-01-28T05:02:57;5.80;;;5.27;;
19179;SDS011;9722;48.754;8.868;2023-01-28T05:06:18;6.00;;;5.40;;
19179;SDS011;9722;48.754;8.868;2023-01-28T05:09:38;6.27;;;4.77;;
19179;SDS011;9722;48.754;8.868;2023-01-28T05:12:59;6.97;;;5.87;;
19179;SDS011;9722;48.754;8.868;2023-01-28T05:16:20;5.63;;;5.13;;
19179;SDS011;9722;48.754;8.868;2023-01-28T05:19:40;5.53;;;5.03;;
19179;SDS011;9722;48.754;8.868;2023-01-28T05:23:01;6.03;;;5.47;;
19179;SDS011;9722;48.754;8.868;2023-01-28T05:26:21;8.40;;;4.97;;
19179;SDS011;9722;48.754;8.868;2023-01-28T05:29:42;6.33;;;5.23;;
19179;SDS011;9722;48.754;8.868;2023-01-28T05:33:03;5.90;;;5.40;;
19179;SDS011;9722;48.754;8.868;2023-01-28T05:36:23;5.83;;;5.33;;
19179;SDS011;9722;48.754;8.868;2023-01-28T05:39:44;5.17;;;4.67;;
19179;SDS011;9722;48.754;8.868;2023-01-28T05:43:04;5.50;;;5.00;;
19179;SDS011;9722;48.754;8.868;2023-01-28T05:46:25;5.50;;;5.00;;
19179;SDS011;9722;48.754;8.868;2023-01-28T05:49:45;4.87;;;4.47;;
19179;SDS011;9722;48.754;8.868;2023-01-28T05:53:06;5.57;;;5.07;;
19179;SDS011;9722;48.754;8.868;2023-01-28T05:56:27;5.40;;;4.90;;
19179;SDS011;9722;48.754;8.868;2023-01-28T05:59:47;6.27;;;5.40;;
19179;SDS011;9722;48.754;8.868;2023-01-28T06:03:08;6.37;;;5.87;;
19179;SDS011;9722;48.754;8.868;2023-01-28T06:06:28;5.60;;;5.10;;
19179;SDS011;9722;48.754;8.868;2023-01-28T06:09:49;5.37;;;4.87;;
19179;SDS011;9722;48.754;8.868;2023-01-28T06:13:09;6.17;;;5.53;;
19179;SDS011;9722;48.754;8.868;2023-01-28T06:16:30;5.20;;;4.77;;
19179;SDS011;9722;48.754;8.868;2023-01-28T06:19:50;6.07;;;5.53;;
19179;SDS011;9722;48.754;8.868;2023-01-28T06:23:11;5.63;;;5.13;;
19179;SDS011;9722;48.754;8.868;2023-01-28T06:26:31;6.00;;;5.40;;
19179;SDS011;9722;48.754;8.868;2023-01-28T06:29:52;6.50;;;5.90;;
19179;SDS011;9722;48.754;8.868;2023-01-28T06:33:12;5.37;;;4.87;;
19179;SDS011;9722;48.754;8.868;2023-01-28T06:36:34;6.43;;;5.73;;
19179;SDS011;9722;48.754;8.868;2023-01-28T06:39:55;5.87;;;5.37;;
19179;SDS011;9722;48.754;8.868;2023-01-28T06:43:15;5.07;;;4.67;;
19179;SDS011;9722;48.754;8.868;2023-01-28T06:46:36;5.93;;;4.47;;
19179;SDS011;9722;48.754;8.868;2023-01-28T06:49:56;6.13;;;5.53;;
19179;SDS011;9722;48.754;8.868;2023-01-28T06:53:17;5.00;;;4.50;;
19179;SDS011;9722;48.754;8.868;2023-01-28T06:56:37;6.07;;;4.83;;
19179;SDS011;9722;48.754;8.868;2023-01-28T06:59:58;5.63;;;5.13;;
19179;SDS011;9722;48.754;8.868;2023-01-28T07:03:18;5.00;;;4.33;;
19179;SDS011;9722;48.754;8.868;2023-01-28T07:06:39;5.70;;;5.20;;
19179;SDS011;9722;48.754;8.868;2023-01-28T07:10:00;5.60;;;4.90;;
19179;SDS011;9722;48.754;8.868;2023-01-28T07:13:20;7.17;;;5.70;;
19179;SDS011;9722;48.754;8.868;2023-01-28T07:16:41;5.53;;;5.03;;
19179;SDS011;9722;48.754;8.868;2023-01-28T07:20:01;5.40;;;4.90;;
19179;SDS011;9722;48.754;8.868;2023-01-28T07:23:22;4.90;;;4.40;;
19179;SDS011;9722;48.754;8.868;2023-01-28T07:26:49;6.80;;;4.77;;
19179;SDS011;9722;48.754;8.868;2023-01-28T07:30:09;6.13;;;5.43;;
19179;SDS011;9722;48.754;8.868;2023-01-28T07:33:30;5.40;;;5.00;;
19179;SDS011;9722;48.754;8.868;2023-01-28T07:36:51;6.27;;;5.67;;
19179;SDS011;9722;48.754;8.868;2023-01-28T07:40:11;6.10;;;5.50;;
19179;SDS011;9722;48.754;8.868;2023-01-28T07:43:32;6.40;;;5.70;;
19179;SDS011;9722;48.754;8.868;2023-01-28T07:46:52;6.33;;;5.60;;
19179;SDS011;9722;48.754;8.868;2023-01-28T07:50:13;5.63;;;5.07;;
19179;SDS011;9722;48.754;8.868;2023-01-28T07:53:35;5.47;;;4.97;;
19179;SDS011;9722;48.754;8.868;2023-01-28T07:56:56;6.33;;;5.73;;
19179;SDS011;9722;48.754;8.868;2023-01-28T08:00:17;6.70;;;6.10;;
19179;SDS011;9722;48.754;8.868;2023-01-28T08:03:38;5.77;;;5.27;;
19179;SDS011;9722;48.754;8.868;2023-01-28T08:06:58;5.23;;;4.80;;
19179;SDS011;9722;48.754;8.868;2023-01-28T08:10:19;5.90;;;5.33;;
19179;SDS011;9722;48.754;8.868;2023-01-28T08:13:40;6.80;;;6.10;;
19179;SDS011;9722;48.754;8.868;2023-01-28T08:17:00;6.07;;;5.50;;
19179;SDS011;9722;48.754;8.868;2023-01-28T08:20:21;5.90;;;5.30;;
19179;SDS011;9722;48.754;8.868;2023-01-28T08:23:43;6.37;;;5.77;;
19179;SDS011;9722;48.754;8.868;2023-01-28T08:27:04;6.00;;;5.23;;
19179;SDS011;9722;48.754;8.868;2023-01-28T08:30:24;5.87;;;5.23;;
19179;SDS011;9722;48.754;8.868;2023-01-28T08:33:45;8.10;;;6.20;;
19179;SDS011;9722;48.754;8.868;2023-01-28T08:37:05;7.13;;;6.43;;
19179;SDS011;9722;48.754;8.868;2023-01-28T08:40:26;5.83;;;5.33;;
19179;SDS011;9722;48.754;8.868;2023-01-28T08:43:47;6.73;;;6.13;;
19179;SDS011;9722;48.754;8.868;2023-01-28T08:47:08;7.27;;;6.50;;
19179;SDS011;9722;48.754;8.868;2023-01-28T08:50:29;6.27;;;5.67;;
19179;SDS011;9722;48.754;8.868;2023-01-28T08:53:52;6.13;;;5.53;;
19179;SDS011;9722;48.754;8.868;2023-01-28T08:57:13;6.53;;;5.93;;
19179;SDS011;9722;48.754;8.868;2023-01-28T09:00:33;7.17;;;6.20;;
19179;SDS011;9722;48.754;8.868;2023-01-28T09:03:54;6.63;;;6.03;;
19179;SDS011;9722;48.754;8.868;2023-01-28T09:07:15;6.77;;;6.17;;
19179;SDS011;9722;48.754;8.868;2023-01-28T09:10:35;7.20;;;6.50;;
19179;SDS011;9722;48.754;8.868;2023-01-28T09:13:56;6.27;;;5.67;;
19179;SDS011;9722;48.754;8.868;2023-01-28T09:17:17;7.00;;;6.33;;
19179;SDS011;9722;48.754;8.868;2023-01-28T09:20:38;6.77;;;6.17;;
19179;SDS011;9722;48.754;8.868;2023-01-28T09:23:59;6.47;;;5.97;;
19179;SDS011;9722;48.754;8.868;2023-01-28T09:27:19;6.80;;;6.20;;
19179;SDS011;9722;48.754;8.868;2023-01-28T09:30:40;6.83;;;6.20;;
19179;SDS011;9722;48.754;8.868;2023-01-28T09:34:00;7.00;;;6.30;;
19179;SDS011;9722;48.754;8.868;2023-01-28T09:37:22;6.67;;;5.97;;
19179;SDS011;9722;48.754;8.868;2023-01-28T09:40:43;7.17;;;6.47;;
19179;SDS011;9722;48.754;8.868;2023-01-28T09:44:06;7.37;;;6.67;;
19179;SDS011;9722;48.754;8.868;2023-01-28T09:47:50;8.33;;;6.40;;
19179;SDS011;9722;48.754;8.868;2023-01-28T09:51:26;7.23;;;6.60;;
19179;SDS011;9722;48.754;8.868;2023-01-28T09:54:54;7.27;;;6.57;;
19179;SDS011;9722;48.754;8.868;2023-01-28T09:58:22;6.83;;;6.13;;
19179;SDS011;9722;48.754;8.868;2023-01-28T10:01:52;7.33;;;6.60;;
19179;SDS011;9722;48.754;8.868;2023-01-28T10:05:19;7.33;;;6.63;;
19179;SDS011;9722;48.754;8.868;2023-01-28T10:09:18;6.70;;;6.10;;
19179;SDS011;9722;48.754;8.868;2023-01-28T10:12:49;8.43;;;6.20;;
19179;SDS011;9722;48.754;8.868;2023-01-28T10:17:03;7.90;;;6.60;;
19179;SDS011;9722;48.754;8.868;2023-01-28T10:23:38;8.03;;;7.10;;
19179;SDS011;9722;48.754;8.868;2023-01-28T10:27:16;7.60;;;7.00;;
19179;SDS011;9722;48.754;8.868;2023-01-28T10:30:40;6.93;;;6.27;;
19179;SDS011;9722;48.754;8.868;2023-01-28T10:34:04;12.10;;;8.73;;
19179;SDS011;9722;48.754;8.868;2023-01-28T10:37:25;8.07;;;7.23;;
19179;SDS011;9722;48.754;8.868;2023-01-28T10:40:46;8.27;;;7.07;;
19179;SDS011;9722;48.754;8.868;2023-01-28T10:44:26;9.07;;;7.37;;
19179;SDS011;9722;48.754;8.868;2023-01-28T10:48:07;9.47;;;8.17;;
19179;SDS011;9722;48.754;8.868;2023-01-28T10:51:34;7.17;;;6.57;;
19179;SDS011;9722;48.754;8.868;2023-01-28T10:54:59;7.50;;;6.73;;
19179;SDS011;9722;48.754;8.868;2023-01-28T10:58:24;7.40;;;6.70;;
19179;SDS011;9722;48.754;8.868;2023-01-28T11:01:49;7.37;;;6.67;;
19179;SDS011;9722;48.754;8.868;2023-01-28T11:05:22;7.23;;;6.53;;
19179;SDS011;9722;48.754;8.868;2023-01-28T11:08:47;7.10;;;6.50;;
19179;SDS011;9722;48.754;8.868;2023-01-28T11:12:11;7.90;;;7.20;;
19179;SDS011;9722;48.754;8.868;2023-01-28T11:15:46;8.47;;;7.67;;
19179;SDS011;9722;48.754;8.868;2023-01-28T11:19:12;7.53;;;6.83;;
19179;SDS011;9722;48.754;8.868;2023-01-28T11:22:42;7.50;;;6.80;;
19179;SDS011;9722;48.754;8.868;2023-01-28T11:26:04;7.60;;;6.20;;
19179;SDS011;9722;48.754;8.868;2023-01-28T11:29:30;7.70;;;6.97;;
19179;SDS011;9722;48.754;8.868;2023-01-28T11:32:53;7.60;;;6.90;;
19179;SDS011;9722;48.754;8.868;2023-01-28T11:36:22;8.80;;;7.13;;
19179;SDS011;9722;48.754;8.868;2023-01-28T11:39:47;7.77;;;6.97;;
19179;SDS011;9722;48.754;8.868;2023-01-28T11:43:08;6.93;;;6.23;;
19179;SDS011;9722;48.754;8.868;2023-01-28T11:54:16;7.20;;;6.50;;
19179;SDS011;9722;48.754;8.868;2023-01-28T12:05:18;11.83;;;6.70;;
19179;SDS011;9722;48.754;8.868;2023-01-28T12:08:53;7.30;;;5.93;;
19179;SDS011;9722;48.754;8.868;2023-01-28T12:12:43;8.50;;;6.40;;
19179;SDS011;9722;48.754;8.868;2023-01-28T12:27:19;8.80;;;7.60;;
19179;SDS011;9722;48.754;8.868;2023-01-28T12:35:02;7.53;;;6.83;;
19179;SDS011;9722;48.754;8.868;2023-01-28T12:38:54;7.77;;;6.97;;
19179;SDS011;9722;48.754;8.868;2023-01-28T12:42:52;8.63;;;7.03;;
19179;SDS011;9722;48.754;8.868;2023-01-28T12:46:22;7.87;;;6.80;;
19179;SDS011;9722;48.754;8.868;2023-01-28T12:49:47;8.40;;;6.83;;
19179;SDS011;9722;48.754;8.868;2023-01-28T12:53:18;7.00;;;6.07;;
19179;SDS011;9722;48.754;8.868;2023-01-28T12:56:43;6.67;;;6.07;;
19179;SDS011;9722;48.754;8.868;2023-01-28T13:00:32;6.57;;;5.97;;
19179;SDS011;9722;48.754;8.868;2023-01-28T13:04:12;6.43;;;5.00;;
19179;SDS011;9722;48.754;8.868;2023-01-28T13:08:03;6.87;;;6.17;;
19179;SDS011;9722;48.754;8.868;2023-01-28T13:11:32;5.57;;;5.07;;
19179;SDS011;9722;48.754;8.868;2023-01-28T13:14:55;6.57;;;5.70;;
19179;SDS011;9722;48.754;8.868;2023-01-28T13:22:08;6.00;;;5.50;;
19179;SDS011;9722;48.754;8.868;2023-01-28T13:25:48;5.67;;;4.87;;
19179;SDS011;9722;48.754;8.868;2023-01-28T13:32:34;4.00;;;3.70;;
19179;SDS011;9722;48.754;8.868;2023-01-28T13:35:55;3.90;;;3.60;;
19179;SDS011;9722;48.754;8.868;2023-01-28T13:42:38;3.77;;;3.37;;
19179;SDS011;9722;48.754;8.868;2023-01-28T13:46:10;3.50;;;3.20;;
19179;SDS011;9722;48.754;8.868;2023-01-28T13:53:39;4.17;;;3.70;;
19179;SDS011;9722;48.754;8.868;2023-01-28T14:03:50;4.80;;;4.40;;
19179;SDS011;9722;48.754;8.868;2023-01-28T14:07:49;5.03;;;4.53;;
19179;SDS011;9722;48.754;8.868;2023-01-28T14:11:49;5.40;;;4.80;;
19179;SDS011;9722;48.754;8.868;2023-01-28T14:15:31;6.17;;;4.47;;
19179;SDS011;9722;48.754;8.868;2023-01-28T14:19:32;5.30;;;4.73;;
19179;SDS011;9722;48.754;8.868;2023-01-28T14:22:58;6.77;;;5.50;;
19179;SDS011;9722;48.754;8.868;2023-01-28T14:26:41;6.43;;;5.73;;
19179;SDS011;9722;48.754;8.868;2023-01-28T14:30:19;5.80;;;5.17;;
19179;SDS011;9722;48.754;8.868;2023-01-28T14:33:44;5.53;;;5.03;;
19179;SDS011;9722;48.754;8.868;2023-01-28T14:37:11;5.30;;;4.67;;
19179;SDS011;9722;48.754;8.868;2023-01-28T14:40:35;7.53;;;5.20;;
19179;SDS011;9722;48.754;8.868;2023-01-28T14:43:57;5.80;;;5.30;;
19179;SDS011;9722;48.754;8.868;2023-01-28T14:47:31;6.30;;;5.70;;
19179;SDS011;9722;48.754;8.868;2023-01-28T14:54:32;6.27;;;5.70;;
19179;SDS011;9722;48.754;8.868;2023-01-28T14:58:01;6.10;;;5.47;;
19179;SDS011;9722;48.754;8.868;2023-01-28T15:01:26;5.43;;;4.93;;
19179;SDS011;9722;48.754;8.868;2023-01-28T15:04:49;6.30;;;4.97;;
19179;SDS011;9722;48.754;8.868;2023-01-28T15:08:19;6.40;;;5.80;;
19179;SDS011;9722;48.754;8.868;2023-01-28T15:11:43;5.67;;;5.17;;
19179;SDS011;9722;48.754;8.868;2023-01-28T15:15:10;5.63;;;5.13;;
19179;SDS011;9722;48.754;8.868;2023-01-28T15:18:44;5.47;;;4.97;;
19179;SDS011;9722;48.754;8.868;2023-01-28T15:22:06;5.63;;;5.13;;
19179;SDS011;9722;48.754;8.868;2023-01-28T15:25:27;7.03;;;5.07;;
19179;SDS011;9722;48.754;8.868;2023-01-28T15:28:49;5.30;;;4.80;;
19179;SDS011;9722;48.754;8.868;2023-01-28T15:32:19;5.73;;;5.07;;
19179;SDS011;9722;48.754;8.868;2023-01-28T15:35:49;5.70;;;5.23;;
19179;SDS011;9722;48.754;8.868;2023-01-28T15:39:18;5.77;;;5.27;;
19179;SDS011;9722;48.754;8.868;2023-01-28T15:42:40;4.93;;;4.53;;
19179;SDS011;9722;48.754;8.868;2023-01-28T15:46:08;5.43;;;4.90;;
19179;SDS011;9722;48.754;8.868;2023-01-28T15:49:33;5.57;;;5.00;;
19179;SDS011;9722;48.754;8.868;2023-01-28T15:52:56;5.77;;;5.27;;
19179;SDS011;9722;48.754;8.868;2023-01-28T15:56:22;5.70;;;5.20;;
19179;SDS011;9722;48.754;8.868;2023-01-28T15:59:45;5.30;;;4.80;;
19179;SDS011;9722;48.754;8.868;2023-01-28T16:03:16;4.87;;;4.33;;
19179;SDS011;9722;48.754;8.868;2023-01-28T16:06:39;5.67;;;4.60;;
19179;SDS011;9722;48.754;8.868;2023-01-28T16:10:05;5.87;;;5.30;;
19179;SDS011;9722;48.754;8.868;2023-01-28T16:13:26;6.20;;;4.93;;
19179;SDS011;9722;48.754;8.868;2023-01-28T16:16:50;6.03;;;5.30;;
19179;SDS011;9722;48.754;8.868;2023-01-28T16:20:22;5.53;;;5.03;;
19179;SDS011;9722;48.754;8.868;2023-01-28T16:23:52;4.80;;;4.40;;
19179;SDS011;9722;48.754;8.868;2023-01-28T16:27:21;4.77;;;4.37;;
19179;SDS011;9722;48.754;8.868;2023-01-28T16:30:45;5.33;;;4.93;;
19179;SDS011;9722;48.754;8.868;2023-01-28T16:34:07;4.37;;;3.97;;
19179;SDS011;9722;48.754;8.868;2023-01-28T16:37:29;5.17;;;4.43;;
19179;SDS011;9722;48.754;8.868;2023-01-28T16:40:50;4.73;;;4.33;;
19179;SDS011;9722;48.754;8.868;2023-01-28T16:44:14;4.53;;;4.13;;
19179;SDS011;9722;48.754;8.868;2023-01-28T16:47:35;4.60;;;4.20;;
19179;SDS011;9722;48.754;8.868;2023-01-28T16:50:56;4.20;;;3.80;;
19179;SDS011;9722;48.754;8.868;2023-01-28T16:54:17;3.83;;;3.50;;
19179;SDS011;9722;48.754;8.868;2023-01-28T16:57:37;4.83;;;4.37;;
19179;SDS011;9722;48.754;8.868;2023-01-28T17:00:58;4.97;;;4.47;;
19179;SDS011;9722;48.754;8.868;2023-01-28T17:04:19;4.47;;;4.03;;
19179;SDS011;9722;48.754;8.868;2023-01-28T17:07:40;4.27;;;3.40;;
19179;SDS011;9722;48.754;8.868;2023-01-28T17:11:00;3.23;;;2.93;;
19179;SDS011;9722;48.754;8.868;2023-01-28T17:14:21;4.80;;;4.40;;
19179;SDS011;9722;48.754;8.868;2023-01-28T17:17:41;4.27;;;3.87;;
19179;SDS011;9722;48.754;8.868;2023-01-28T17:21:03;4.13;;;3.73;;
19179;SDS011;9722;48.754;8.868;2023-01-28T17:24:27;4.23;;;3.83;;
19179;SDS011;9722;48.754;8.868;2023-01-28T17:27:48;4.00;;;3.70;;
19179;SDS011;9722;48.754;8.868;2023-01-28T17:31:10;4.30;;;3.90;;
19179;SDS011;9722;48.754;8.868;2023-01-28T17:34:35;5.07;;;4.57;;
19179;SDS011;9722;48.754;8.868;2023-01-28T17:37:55;3.43;;;3.13;;
19179;SDS011;9722;48.754;8.868;2023-01-28T17:41:16;4.50;;;4.20;;
19179;SDS011;9722;48.754;8.868;2023-01-28T17:44:37;4.83;;;4.00;;
19179;SDS011;9722;48.754;8.868;2023-01-28T17:47:57;4.83;;;3.73;;
19179;SDS011;9722;48.754;8.868;2023-01-28T17:51:18;4.17;;;3.83;;
19179;SDS011;9722;48.754;8.868;2023-01-28T17:54:39;4.47;;;4.17;;
19179;SDS011;9722;48.754;8.868;2023-01-28T17:57:59;4.70;;;4.20;;
19179;SDS011;9722;48.754;8.868;2023-01-28T18:01:20;4.57;;;4.17;;
19179;SDS011;9722;48.754;8.868;2023-01-28T18:04:42;7.13;;;4.33;;
19179;SDS011;9722;48.754;8.868;2023-01-28T18:08:02;4.47;;;4.07;;
19179;SDS011;9722;48.754;8.868;2023-01-28T18:11:23;4.43;;;4.03;;
19179;SDS011;9722;48.754;8.868;2023-01-28T18:14:44;4.17;;;3.83;;
19179;SDS011;9722;48.754;8.868;2023-01-28T18:18:04;4.27;;;3.63;;
19179;SDS011;9722;48.754;8.868;2023-01-28T18:21:33;5.27;;;4.20;;
19179;SDS011;9722;48.754;8.868;2023-01-28T18:24:55;4.90;;;4.50;;
19179;SDS011;9722;48.754;8.868;2023-01-28T18:28:15;4.73;;;4.27;;
19179;SDS011;9722;48.754;8.868;2023-01-28T18:31:36;4.43;;;4.03;;
19179;SDS011;9722;48.754;8.868;2023-01-28T18:34:56;4.90;;;4.07;;
19179;SDS011;9722;48.754;8.868;2023-01-28T18:38:17;4.57;;;4.13;;
19179;SDS011;9722;48.754;8.868;2023-01-28T18:41:38;7.67;;;4.10;;
19179;SDS011;9722;48.754;8.868;2023-01-28T18:44:58;4.07;;;3.77;;
19179;SDS011;9722;48.754;8.868;2023-01-28T18:48:19;4.33;;;3.93;;
19179;SDS011;9722;48.754;8.868;2023-01-28T18:51:39;4.70;;;4.30;;
19179;SDS011;9722;48.754;8.868;2023-01-28T18:55:00;4.17;;;3.77;;
19179;SDS011;9722;48.754;8.868;2023-01-28T18:58:20;4.33;;;3.77;;
19179;SDS011;9722;48.754;8.868;2023-01-28T19:01:41;4.73;;;4.33;;
19179;SDS011;9722;48.754;8.868;2023-01-28T19:05:02;4.73;;;4.23;;
19179;SDS011;9722;48.754;8.868;2023-01-28T19:08:23;3.90;;;3.50;;
19179;SDS011;9722;48.754;8.868;2023-01-28T19:11:43;4.93;;;4.07;;
19179;SDS011;9722;48.754;8.868;2023-01-28T19:15:05;3.77;;;3.47;;
19179;SDS011;9722;48.754;8.868;2023-01-28T19:18:26;4.30;;;3.90;;
19179;SDS011;9722;48.754;8.868;2023-01-28T19:21:46;4.03;;;3.73;;
19179;SDS011;9722;48.754;8.868;2023-01-28T19:25:07;4.20;;;3.80;;
19179;SDS011;9722;48.754;8.868;2023-01-28T19:28:31;4.07;;;3.77;;
19179;SDS011;9722;48.754;8.868;2023-01-28T19:31:52;3.47;;;3.17;;
19179;SDS011;9722;48.754;8.868;2023-01-28T19:35:13;4.27;;;3.87;;
19179;SDS011;9722;48.754;8.868;2023-01-28T19:38:34;7.53;;;4.00;;
19179;SDS011;9722;48.754;8.868;2023-01-28T19:41:54;3.90;;;3.60;;
19179;SDS011;9722;48.754;8.868;2023-01-28T19:45:15;4.50;;;4.10;;
19179;SDS011;9722;48.754;8.868;2023-01-28T19:48:35;4.77;;;4.27;;
19179;SDS011;9722;48.754;8.868;2023-01-28T19:51:56;4.70;;;4.20;;
19179;SDS011;9722;48.754;8.868;2023-01-28T19:55:17;4.80;;;4.30;;
19179;SDS011;9722;48.754;8.868;2023-01-28T19:58:39;4.40;;;4.00;;
19179;SDS011;9722;48.754;8.868;2023-01-28T20:02:01;4.80;;;4.40;;
19179;SDS011;9722;48.754;8.868;2023-01-28T20:05:21;4.37;;;4.00;;
19179;SDS011;9722;48.754;8.868;2023-01-28T20:08:42;5.00;;;4.57;;
19179;SDS011;9722;48.754;8.868;2023-01-28T20:12:03;4.70;;;4.30;;
19179;SDS011;9722;48.754;8.868;2023-01-28T20:15:23;4.00;;;3.70;;
19179;SDS011;9722;48.754;8.868;2023-01-28T20:18:47;4.67;;;4.33;;
19179;SDS011;9722;48.754;8.868;2023-01-28T20:22:13;4.70;;;4.30;;
19179;SDS011;9722;48.754;8.868;2023-01-28T20:25:33;4.77;;;4.37;;
19179;SDS011;9722;48.754;8.868;2023-01-28T20:28:54;5.97;;;4.10;;
19179;SDS011;9722;48.754;8.868;2023-01-28T20:32:14;6.00;;;5.40;;
19179;SDS011;9722;48.754;8.868;2023-01-28T20:35:34;4.60;;;4.30;;
19179;SDS011;9722;48.754;8.868;2023-01-28T20:38:55;4.57;;;4.23;;
19179;SDS011;9722;48.754;8.868;2023-01-28T20:42:15;5.03;;;4.53;;
19179;SDS011;9722;48.754;8.868;2023-01-28T20:45:36;6.23;;;4.17;;
19179;SDS011;9722;48.754;8.868;2023-01-28T20:48:57;5.07;;;4.60;;
19179;SDS011;9722;48.754;8.868;2023-01-28T20:52:21;5.10;;;4.60;;
19179;SDS011;9722;48.754;8.868;2023-01-28T20:55:42;5.93;;;5.30;;
19179;SDS011;9722;48.754;8.868;2023-01-28T20:59:03;5.30;;;4.70;;
19179;SDS011;9722;48.754;8.868;2023-01-28T21:02:24;4.67;;;4.37;;
19179;SDS011;9722;48.754;8.868;2023-01-28T21:05:45;11.73;;;7.97;;
19179;SDS011;9722;48.754;8.868;2023-01-28T21:09:07;6.77;;;6.07;;
19179;SDS011;9722;48.754;8.868;2023-01-28T21:12:27;5.17;;;4.67;;
19179;SDS011;9722;48.754;8.868;2023-01-28T21:15:53;5.13;;;4.47;;
19179;SDS011;9722;48.754;8.868;2023-01-28T21:19:15;4.63;;;4.27;;
19179;SDS011;9722;48.754;8.868;2023-01-28T21:22:35;4.93;;;4.53;;
19179;SDS011;9722;48.754;8.868;2023-01-28T21:25:59;4.10;;;3.80;;
19179;SDS011;9722;48.754;8.868;2023-01-28T21:29:21;4.93;;;4.53;;
19179;SDS011;9722;48.754;8.868;2023-01-28T21:32:41;4.70;;;4.30;;
19179;SDS011;9722;48.754;8.868;2023-01-28T21:36:09;4.87;;;4.47;;
19179;SDS011;9722;48.754;8.868;2023-01-28T21:39:31;5.27;;;4.57;;
19179;SDS011;9722;48.754;8.868;2023-01-28T21:42:52;4.87;;;4.47;;
19179;SDS011;9722;48.754;8.868;2023-01-28T21:46:13;6.13;;;4.37;;
19179;SDS011;9722;48.754;8.868;2023-01-28T21:49:34;4.70;;;4.30;;
19179;SDS011;9722;48.754;8.868;2023-01-28T21:52:54;4.47;;;4.07;;
19179;SDS011;9722;48.754;8.868;2023-01-28T21:56:15;4.83;;;4.30;;
19179;SDS011;9722;48.754;8.868;2023-01-28T21:59:35;4.70;;;4.30;;
19179;SDS011;9722;48.754;8.868;2023-01-28T22:02:58;4.23;;;3.80;;
19179;SDS011;9722;48.754;8.868;2023-01-28T22:06:19;4.67;;;4.27;;
19179;SDS011;9722;48.754;8.868;2023-01-28T22:09:39;5.03;;;3.90;;
19179;SDS011;9722;48.754;8.868;2023-01-28T22:13:01;4.50;;;4.10;;